Terminal Aerodrome Forecast
Issued by NWS

Home | Current Version | Previous Version | Graphics & Text | Print | Product List | Glossary On
Versions: 1 2 3 4 5 6 7 8 9 10 11 12 13 14 15 16 17 18 19 20 21 22 23 24 25 26
000
FTUS43 KGRB 192340
TAFATW
TAF
KATW 192340Z 2000/2024 12008KT P6SM SKC
     FM200700 13004KT 6SM BR SCT070 WS005/13025KT
      TEMPO 2010/2014 3SM BR
     FM201400 14009KT P6SM SCT070
     FM201600 15012G20KT P6SM BKN070=

USA.gov is the U.S. government's official web portal to all federal, state and local government web resources and services.